Time;durP1;ratioP1;P1;durP2;ratioP2;P2;SDS_P1;SDS_P2;PMS_P1;PMS_P2;Temp;Humidity;BMP_temperature;BMP_pressure;BME280_temperature;BME280_humidity;BME280_pressure;Samples;Min_cycle;Max_cycle;Signal;HPM_P1;HPM_P2
2023/07/20 00:01:35;;;;;;;104.60;82.50;;;;;;;12.36;100.00;101370.66;5037101;28;20033;-77
2023/07/20 00:04:01;;;;;;;112.95;86.38;;;;;;;12.51;100.00;101387.78;5037415;28;20083;-77
2023/07/20 00:06:30;;;;;;;129.73;94.20;;;;;;;12.55;100.00;101377.50;5048760;28;20033;-77
2023/07/20 00:08:58;;;;;;;150.30;103.25;;;;;;;12.65;100.00;101380.84;5037782;28;20041;-77
2023/07/20 00:11:26;;;;;;;141.13;98.85;;;;;;;12.70;100.00;101400.06;5053927;28;20028;-78
2023/07/20 00:13:51;;;;;;;109.97;85.45;;;;;;;12.64;100.00;101389.09;5054053;28;20040;-76
2023/07/20 00:16:17;;;;;;;111.32;85.78;;;;;;;12.62;100.00;101385.75;5053768;28;20025;-77
2023/07/20 00:18:43;;;;;;;150.43;102.75;;;;;;;12.66;100.00;101379.00;5037722;28;20029;-77
2023/07/20 00:21:09;;;;;;;141.30;98.88;;;;;;;12.69;100.00;101394.81;5020684;28;20555;-77
2023/07/20 00:23:35;;;;;;;130.88;94.53;;;;;;;12.44;100.00;101351.75;5037009;28;20033;-77
2023/07/20 00:26:00;;;;;;;135.40;97.68;;;;;;;12.56;100.00;101364.84;5020581;28;20183;-76
2023/07/20 00:28:26;;;;;;;154.98;103.68;;;;;;;12.68;100.00;101385.06;5053217;28;20049;-76
2023/07/20 00:30:54;;;;;;;166.95;109.40;;;;;;;12.66;100.00;101382.53;5036643;28;20037;-77
2023/07/20 00:33:22;;;;;;;165.65;110.57;;;;;;;12.71;100.00;101387.41;5043344;28;20509;-78
2023/07/20 00:35:53;;;;;;;161.90;107.95;;;;;;;12.66;100.00;101374.44;5056329;28;20539;-77
2023/07/20 00:38:19;;;;;;;161.50;109.07;;;;;;;12.67;100.00;101383.34;5040287;28;20036;-78
2023/07/20 00:40:49;;;;;;;153.90;103.55;;;;;;;12.55;100.00;101374.81;5056525;28;20085;-76
2023/07/20 00:43:15;;;;;;;97.97;80.57;;;;;;;12.63;100.00;101388.28;5073397;28;20036;-76
2023/07/20 00:46:03;;;;;;;163.18;108.60;;;;;;;12.64;100.00;101387.25;5056354;28;20037;-77
2023/07/20 00:48:30;;;;;;;162.77;107.70;;;;;;;12.62;100.00;101375.81;5072476;28;20029;-77
2023/07/20 00:50:56;;;;;;;160.48;106.78;;;;;;;12.56;100.00;101370.25;5056508;28;20024;-76
2023/07/20 00:53:22;;;;;;;151.90;103.45;;;;;;;12.57;100.00;101388.13;5073173;28;20028;-77
2023/07/20 00:55:48;;;;;;;150.88;101.57;;;;;;;12.54;100.00;101378.50;5055506;28;20024;-78
2023/07/20 00:58:14;;;;;;;113.85;87.82;;;;;;;12.52;100.00;101378.69;5072706;28;20125;-77
2023/07/20 01:00:42;;;;;;;155.95;105.70;;;;;;;12.49;100.00;101387.16;5056725;28;20230;-78
2023/07/20 01:03:08;;;;;;;155.30;105.20;;;;;;;12.29;100.00;101364.25;5072922;28;20119;-76
2023/07/20 01:05:40;;;;;;;92.70;78.90;;;;;;;12.31;100.00;101384.66;5055534;28;20119;-77
2023/07/20 01:08:18;;;;;;;163.88;109.00;;;;;;;12.22;100.00;101384.84;5056147;28;20521;-77
2023/07/20 01:10:49;;;;;;;138.20;97.63;;;;;;;12.11;100.00;101372.56;5056476;28;20045;-77
2023/07/20 01:13:15;;;;;;;154.10;103.95;;;;;;;12.23;100.00;101381.13;5056301;28;20039;-77
2023/07/20 01:15:50;;;;;;;145.63;101.47;;;;;;;12.23;100.00;101376.59;5056332;28;20040;-78
2023/07/20 01:18:19;;;;;;;165.38;109.45;;;;;;;12.24;100.00;101366.63;5055927;28;20041;-76
2023/07/20 01:20:47;;;;;;;156.85;106.53;;;;;;;12.25;100.00;101374.56;5072044;28;20493;-77
2023/07/20 01:23:25;;;;;;;122.53;91.15;;;;;;;12.16;100.00;101359.41;5072493;28;20025;-77
2023/07/20 01:26:18;;;;;;;168.25;110.15;;;;;;;12.32;100.00;101385.50;5056044;28;20032;-78
2023/07/20 01:28:59;;;;;;;165.98;110.57;;;;;;;12.27;100.00;101367.13;5072373;28;20033;-77
2023/07/20 01:31:27;;;;;;;166.38;110.68;;;;;;;12.40;100.00;101382.78;5056119;28;20032;-78
2023/07/20 01:34:03;;;;;;;162.45;108.78;;;;;;;12.44;100.00;101376.03;5071909;28;20032;-76
2023/07/20 01:36:33;;;;;;;162.63;109.05;;;;;;;12.45;100.00;101374.16;5040192;28;20051;-76
2023/07/20 01:38:59;;;;;;;143.50;100.25;;;;;;;12.32;100.00;101356.66;5039363;28;20043;-76
2023/07/20 01:41:24;;;;;;;97.05;79.32;;;;;;;12.43;100.00;101376.19;5055550;28;20111;-77
2023/07/20 01:43:50;;;;;;;91.40;77.25;;;;;;;12.29;100.00;101362.41;5071360;28;20067;-77
2023/07/20 01:46:16;;;;;;;129.88;93.10;;;;;;;12.36;100.00;101369.78;5019190;28;20128;-78
2023/07/20 01:48:42;;;;;;;134.32;96.10;;;;;;;12.26;100.00;101362.75;5046777;28;20045;-77
2023/07/20 01:51:07;;;;;;;115.10;87.38;;;;;;;12.19;100.00;101353.66;5052132;28;20029;-77
2023/07/20 01:53:33;;;;;;;135.20;96.10;;;;;;;12.18;100.00;101357.38;5069221;28;20040;-78
2023/07/20 01:55:59;;;;;;;138.40;98.70;;;;;;;12.17;100.00;101365.63;5055785;28;20033;-76
2023/07/20 01:58:28;;;;;;;143.68;99.93;;;;;;;12.08;100.00;101360.25;5071780;28;20028;-76
2023/07/20 02:00:54;;;;;;;103.07;81.50;;;;;;;12.00;100.00;101360.25;5038740;28;20037;-78
2023/07/20 02:03:21;;;;;;;98.47;80.82;;;;;;;11.79;100.00;101330.28;5038941;28;20036;-77
2023/07/20 02:05:51;;;;;;;149.95;103.65;;;;;;;11.84;100.00;101349.47;5038954;28;20028;-77
2023/07/20 02:08:22;;;;;;;141.35;98.78;;;;;;;11.86;100.00;101353.72;5039062;28;20105;-76
2023/07/20 02:10:48;;;;;;;98.53;80.50;;;;;;;11.90;100.00;101366.84;5055332;28;20029;-77
2023/07/20 02:13:14;;;;;;;94.85;78.78;;;;;;;11.81;100.00;101347.13;5072180;28;20079;-77
2023/07/20 02:15:40;;;;;;;152.73;104.20;;;;;;;11.83;100.00;101362.13;5051801;28;20029;-78
2023/07/20 02:18:06;;;;;;;154.48;105.05;;;;;;;11.82;100.00;101359.56;5051744;28;20021;-77
2023/07/20 02:20:31;;;;;;;95.68;79.97;;;;;;;11.75;100.00;101351.34;5018623;28;20029;-77
2023/07/20 02:22:57;;;;;;;97.60;80.22;;;;;;;11.79;100.00;101358.06;5035191;28;20028;-77
2023/07/20 02:25:23;;;;;;;110.43;83.85;;;;;;;11.87;100.00;101368.03;5035382;28;20075;-78
2023/07/20 02:27:48;;;;;;;158.35;107.22;;;;;;;11.86;100.00;101364.50;5051826;28;20036;-77
2023/07/20 02:30:15;;;;;;;158.30;105.13;;;;;;;11.85;100.00;101361.94;5062085;28;20040;-77
2023/07/20 02:32:45;;;;;;;111.45;86.38;;;;;;;11.84;100.00;101361.09;5038695;28;20055;-77
2023/07/20 02:35:11;;;;;;;149.52;102.03;;;;;;;11.76;100.00;101352.19;5039045;28;20045;-77
2023/07/20 02:37:40;;;;;;;144.32;100.93;;;;;;;11.70;100.00;101352.88;5038807;28;20070;-77
2023/07/20 02:40:07;;;;;;;140.43;98.05;;;;;;;11.63;100.00;101358.06;5055423;28;20032;-77
2023/07/20 02:42:36;;;;;;;91.88;77.43;;;;;;;11.55;100.00;101360.75;5055461;28;20120;-78
2023/07/20 02:45:04;;;;;;;92.15;76.50;;;;;;;11.26;100.00;101327.06;5033708;28;20110;-77
2023/07/20 02:47:30;;;;;;;98.75;79.32;;;;;;;11.35;100.00;101361.09;5035571;28;20036;-78
2023/07/20 02:50:01;;;;;;;108.13;84.07;;;;;;;11.15;100.00;101346.25;5034827;28;20043;-76
2023/07/20 02:52:26;;;;;;;106.45;83.57;;;;;;;11.05;100.00;101348.22;5035640;28;20037;-77
2023/07/20 02:54:52;;;;;;;96.32;79.18;;;;;;;10.87;100.00;101342.97;5068096;28;20463;-77
2023/07/20 02:57:20;;;;;;;97.82;80.38;;;;;;;10.67;100.00;101331.66;5051636;28;20040;-77
2023/07/20 02:59:46;;;;;;;97.32;79.88;;;;;;;10.50;100.00;101331.56;5070220;28;20036;-79
2023/07/20 03:02:12;;;;;;;105.22;82.32;;;;;;;10.33;100.00;101322.56;5038678;28;20040;-77
2023/07/20 03:04:37;;;;;;;109.20;83.75;;;;;;;10.31;100.00;101335.34;5038610;28;20025;-77
2023/07/20 03:07:07;;;;;;;108.47;84.53;;;;;;;10.29;100.00;101347.25;5056389;28;20029;-77
2023/07/20 03:09:36;;;;;;;110.05;85.68;;;;;;;10.18;100.00;101334.06;5055136;28;20021;-77
2023/07/20 03:12:03;;;;;;;159.43;106.70;;;;;;;10.12;100.00;101331.00;5041424;28;20047;-77
2023/07/20 03:14:32;;;;;;;153.95;105.15;;;;;;;10.09;100.00;101331.31;5042305;28;20029;-77
2023/07/20 03:16:58;;;;;;;127.10;93.60;;;;;;;10.11;100.00;101340.06;5074742;28;20455;-76
2023/07/20 03:19:24;;;;;;;119.28;88.75;;;;;;;9.93;100.00;101315.09;5074783;28;20036;-76
2023/07/20 03:21:52;;;;;;;124.88;90.43;;;;;;;10.00;100.00;101337.66;5058220;28;20071;-76
2023/07/20 03:24:18;;;;;;;125.32;91.95;;;;;;;9.94;100.00;101327.53;5053192;28;20033;-77
2023/07/20 03:26:46;;;;;;;125.43;91.60;;;;;;;10.01;100.00;101333.13;5074180;28;20036;-76
2023/07/20 03:29:16;;;;;;;129.68;94.22;;;;;;;9.99;100.00;101321.69;5042091;28;20032;-76
2023/07/20 03:31:48;;;;;;;136.93;97.47;;;;;;;10.04;100.00;101312.13;5041514;28;20066;-77
2023/07/20 03:34:17;;;;;;;137.27;96.70;;;;;;;10.09;100.00;101330.47;5041912;28;20082;-77
2023/07/20 03:36:48;;;;;;;134.85;96.57;;;;;;;10.00;100.00;101337.66;5058250;28;20082;-77
2023/07/20 03:39:14;;;;;;;137.65;97.95;;;;;;;9.86;100.00;101338.22;5041372;28;20067;-76
2023/07/20 03:41:45;;;;;;;134.07;96.30;;;;;;;9.64;100.00;101310.03;5053124;28;20041;-77
2023/07/20 03:44:16;;;;;;;132.95;95.88;;;;;;;9.53;100.00;101324.53;5035031;28;20124;-77
2023/07/20 03:46:48;;;;;;;133.30;96.35;;;;;;;9.40;100.00;101321.41;5054599;28;20037;-77
2023/07/20 03:49:13;;;;;;;131.57;95.93;;;;;;;9.42;100.00;101343.56;5054595;28;20025;-77
2023/07/20 03:51:39;;;;;;;144.15;99.18;;;;;;;9.37;100.00;101340.50;5058082;28;20020;-77
2023/07/20 03:54:05;;;;;;;134.75;97.60;;;;;;;9.31;100.00;101333.88;5041120;28;20407;-76
2023/07/20 03:56:34;;;;;;;139.68;100.25;;;;;;;9.41;100.00;101341.88;5075213;28;20044;-79
2023/07/20 03:58:59;;;;;;;136.93;99.18;;;;;;;9.28;100.00;101303.84;5057671;28;20063;-77
2023/07/20 04:01:25;;;;;;;144.13;100.63;;;;;;;9.55;100.00;101337.78;5073373;28;20063;-78
2023/07/20 04:03:50;;;;;;;142.13;100.40;;;;;;;9.47;100.00;101322.47;5073659;28;20485;-76
2023/07/20 04:06:17;;;;;;;140.68;100.05;;;;;;;9.45;100.00;101332.53;5056445;28;20031;-77
2023/07/20 04:08:47;;;;;;;144.10;99.35;;;;;;;9.37;100.00;101333.31;5057619;28;20025;-77
2023/07/20 04:11:12;;;;;;;141.18;101.03;;;;;;;9.41;100.00;101334.66;5071889;28;20032;-77
2023/07/20 04:13:38;;;;;;;141.77;101.00;;;;;;;9.41;100.00;101340.03;5073724;28;20055;-78
2023/07/20 04:16:05;;;;;;;138.00;99.30;;;;;;;9.34;100.00;101340.78;5073248;28;20063;-76
2023/07/20 04:18:30;;;;;;;139.45;98.43;;;;;;;9.27;100.00;101329.84;5073562;28;20068;-77
2023/07/20 04:20:56;;;;;;;144.65;103.10;;;;;;;9.25;100.00;101332.66;5056528;28;20096;-79
2023/07/20 04:23:22;;;;;;;147.55;102.72;;;;;;;9.27;100.00;101326.31;5073258;28;20029;-77
2023/07/20 04:25:48;;;;;;;145.43;101.28;;;;;;;9.24;100.00;101331.00;5074727;28;20032;-76
2023/07/20 04:28:13;;;;;;;147.10;102.40;;;;;;;9.34;100.00;101338.97;5056867;28;20032;-77
2023/07/20 04:30:42;;;;;;;151.65;102.90;;;;;;;9.38;100.00;101332.28;5056143;28;20032;-77
2023/07/20 04:33:07;;;;;;;141.23;99.53;;;;;;;9.25;100.00;101315.72;5073408;28;20063;-76
2023/07/20 04:35:48;;;;;;;146.27;101.50;;;;;;;9.32;100.00;101338.28;5072827;28;20074;-79
2023/07/20 04:38:17;;;;;;;144.93;101.32;;;;;;;9.27;100.00;101339.75;5056292;28;20111;-77
2023/07/20 04:40:47;;;;;;;142.73;101.68;;;;;;;9.18;100.00;101330.75;5040231;28;20466;-77
2023/07/20 04:43:16;;;;;;;142.75;102.00;;;;;;;8.98;100.00;101313.97;5023759;28;20062;-77
2023/07/20 04:45:41;;;;;;;144.23;101.35;;;;;;;9.01;100.00;101330.59;5039905;28;20448;-77
2023/07/20 04:48:11;;;;;;;153.50;104.10;;;;;;;9.07;100.00;101344.38;5055555;28;20036;-76
2023/07/20 04:50:36;;;;;;;150.73;104.65;;;;;;;8.98;100.00;101325.53;5023594;28;20441;-78
2023/07/20 04:53:05;;;;;;;148.27;103.40;;;;;;;9.19;100.00;101333.28;5039725;28;20036;-77
2023/07/20 04:55:33;;;;;;;149.00;104.63;;;;;;;9.31;100.00;101335.75;5039660;28;20770;-77
2023/07/20 04:58:00;;;;;;;153.90;106.40;;;;;;;9.25;100.00;101316.56;5055330;28;20395;-77
2023/07/20 05:00:27;;;;;;;145.80;103.20;;;;;;;9.56;100.00;101334.97;5055703;28;20035;-76
2023/07/20 05:02:52;;;;;;;149.48;104.22;;;;;;;9.73;100.00;101343.16;5073006;28;20494;-78
2023/07/20 05:05:19;;;;;;;148.13;103.85;;;;;;;9.84;100.00;101333.00;5039521;28;20043;-77
2023/07/20 05:07:44;;;;;;;149.23;103.55;;;;;;;9.86;100.00;101317.56;5038619;28;20391;-77
2023/07/20 05:10:11;;;;;;;145.07;102.72;;;;;;;10.12;100.00;101325.63;5072653;28;20043;-78
2023/07/20 05:12:37;;;;;;;147.70;102.20;;;;;;;10.31;100.00;101335.34;5072550;28;20089;-78
2023/07/20 05:15:06;;;;;;;145.15;101.82;;;;;;;10.41;100.00;101326.31;5038884;28;20040;-77
2023/07/20 05:17:31;;;;;;;149.45;101.35;;;;;;;10.54;100.00;101338.31;5038109;28;20508;-78
2023/07/20 05:20:00;;;;;;;142.93;99.72;;;;;;;10.67;100.00;101332.47;5071849;28;20036;-77
2023/07/20 05:22:25;;;;;;;139.48;98.00;;;;;;;10.88;100.00;101336.59;5039226;28;20114;-76
2023/07/20 05:24:54;;;;;;;180.73;116.40;;;;;;;11.03;100.00;101331.41;5072975;28;20094;-77
2023/07/20 05:27:25;;;;;;;162.20;108.25;;;;;;;10.99;100.00;101326.34;5040671;28;20064;-77
2023/07/20 05:29:58;;;;;;;160.57;107.13;;;;;;;11.14;100.00;101333.78;5051825;28;20040;-76
2023/07/20 05:32:24;;;;;;;183.38;118.53;;;;;;;11.11;100.00;101317.97;5019720;28;20382;-78
2023/07/20 05:34:52;;;;;;;197.38;123.10;;;;;;;11.11;100.00;101321.50;5052354;28;20033;-76
2023/07/20 05:37:18;;;;;;;184.75;117.00;;;;;;;11.29;100.00;101337.50;5070421;28;20036;-77
2023/07/20 05:39:48;;;;;;;187.77;118.13;;;;;;;11.30;100.00;101332.94;5055422;28;20040;-76
2023/07/20 05:42:17;;;;;;;195.70;121.38;;;;;;;11.37;100.00;101334.81;5072233;28;20036;-78
2023/07/20 05:44:47;;;;;;;213.27;129.50;;;;;;;11.43;100.00;101333.31;5071955;28;20064;-76
2023/07/20 05:47:15;;;;;;;207.43;127.30;;;;;;;11.50;100.00;101328.94;5071476;28;20032;-78
2023/07/20 05:49:41;;;;;;;143.55;99.20;;;;;;;11.60;100.00;101334.16;5071005;28;20029;-76
2023/07/20 05:52:11;;;;;;;206.73;128.27;;;;;;;11.68;100.00;101328.78;5038634;28;20036;-78
2023/07/20 05:54:42;;;;;;;213.50;129.98;;;;;;;11.72;100.00;101324.72;5072352;28;20033;-76
2023/07/20 05:57:10;;;;;;;214.30;129.10;;;;;;;11.79;100.00;101314.13;5055547;28;20028;-77
2023/07/20 05:59:43;;;;;;;195.20;120.35;;;;;;;12.00;100.00;101335.19;5056351;28;20037;-79
2023/07/20 06:02:09;;;;;;;165.38;109.18;;;;;;;12.12;100.00;101341.91;5055131;28;20037;-75
2023/07/20 06:04:35;;;;;;;189.05;118.15;;;;;;;12.16;100.00;101329.75;5071661;28;20078;-76
2023/07/20 06:07:01;;;;;;;132.68;95.18;;;;;;;12.30;100.00;101337.13;5071711;28;20463;-77
2023/07/20 06:09:27;;;;;;;138.73;97.53;;;;;;;12.15;100.00;101298.41;5034819;28;20033;-77
2023/07/20 06:11:53;;;;;;;139.52;97.47;;;;;;;12.51;100.00;101330.31;5019575;28;20036;-79
2023/07/20 06:14:18;;;;;;;193.85;119.47;;;;;;;12.53;100.00;101326.41;5038746;28;20036;-76
2023/07/20 06:16:44;;;;;;;212.30;128.77;;;;;;;12.73;100.00;101337.66;5071743;28;20039;-78
2023/07/20 06:19:11;;;;;;;209.88;127.68;;;;;;;12.80;100.00;101326.97;5038790;28;20391;-77
2023/07/20 06:21:41;;;;;;;206.00;126.10;;;;;;;13.03;100.00;101332.41;5071324;28;20048;-78
2023/07/20 06:24:06;;;;;;;198.48;123.40;;;;;;;12.81;100.00;101280.09;5071571;28;20021;-79
2023/07/20 06:26:40;;;;;;;125.90;91.53;;;;;;;13.24;100.00;101337.19;5071600;28;20040;-79
2023/07/20 06:29:06;;;;;;;127.05;92.25;;;;;;;13.00;100.00;101286.91;5055582;28;20025;-77
2023/07/20 06:31:33;;;;;;;208.25;126.47;;;;;;;13.26;100.00;101324.38;5071566;28;20032;-77
2023/07/20 06:33:58;;;;;;;205.65;125.65;;;;;;;13.51;100.00;101343.94;5041507;28;20109;-77
2023/07/20 06:36:25;;;;;;;203.38;124.47;;;;;;;13.56;100.00;101319.91;5042542;28;20032;-76
2023/07/20 06:38:51;;;;;;;211.73;125.97;;;;;;;13.82;100.00;101345.72;5059334;28;20021;-78
2023/07/20 06:41:19;;;;;;;194.93;121.03;;;;;;;13.97;100.00;101349.28;5075583;28;20047;-78
2023/07/20 06:43:44;;;;;;;212.18;127.53;;;;;;;14.16;100.00;101355.19;5074585;28;20024;-79
2023/07/20 06:46:11;;;;;;;212.80;127.85;;;;;;;14.42;100.00;101360.13;5058688;28;20113;-78
2023/07/20 06:48:37;;;;;;;220.70;131.25;;;;;;;14.61;100.00;101329.03;5058198;28;20032;-76
2023/07/20 06:51:03;;;;;;;218.40;130.15;;;;;;;15.35;100.00;101348.63;5041512;28;20028;-78
2023/07/20 06:53:29;;;;;;;217.57;128.82;;;;;;;15.75;100.00;101349.03;5041685;28;20036;-76
2023/07/20 06:55:58;;;;;;;218.82;129.73;;;;;;;16.77;100.00;101346.75;5058110;28;20059;-77
2023/07/20 06:58:26;;;;;;;225.23;130.88;;;;;;;17.69;100.00;101346.16;5074572;28;20033;-79
2023/07/20 07:00:52;;;;;;;230.65;133.20;;;;;;;18.15;100.00;101352.66;5076030;28;20554;-79
2023/07/20 07:03:18;;;;;;;234.93;134.85;;;;;;;18.84;100.00;101349.38;5040524;28;20047;-78
2023/07/20 07:05:45;;;;;;;230.00;133.52;;;;;;;19.87;94.92;101358.38;5075044;28;20100;-79
2023/07/20 07:08:11;;;;;;;219.23;128.88;;;;;;;19.49;89.65;101360.09;5075955;28;20115;-76
2023/07/20 07:10:37;;;;;;;218.10;127.32;;;;;;;19.45;89.66;101349.84;5033077;28;20029;-77
2023/07/20 07:13:04;;;;;;;218.98;128.73;;;;;;;20.87;82.74;101352.72;5021697;28;20044;-76
2023/07/20 07:15:29;;;;;;;223.77;129.75;;;;;;;20.92;76.83;101357.53;5045905;28;20044;-77
2023/07/20 07:17:56;;;;;;;216.85;128.13;;;;;;;21.01;74.45;101343.31;5074704;28;20372;-77
2023/07/20 07:20:22;;;;;;;210.52;125.57;;;;;;;21.40;69.47;101341.09;5074327;28;20119;-78
2023/07/20 07:22:50;;;;;;;222.85;129.98;;;;;;;22.17;68.89;101362.13;5075238;28;20461;-78
2023/07/20 07:25:16;;;;;;;221.75;129.80;;;;;;;22.56;65.27;101349.63;5058018;28;20047;-78
2023/07/20 07:27:41;;;;;;;211.98;126.57;;;;;;;22.06;63.44;101343.81;5058145;28;20433;-78
2023/07/20 07:30:07;;;;;;;195.05;120.88;;;;;;;22.44;62.54;101340.63;5057761;28;20386;-77
2023/07/20 07:32:33;;;;;;;89.13;79.38;;;;;;;23.09;58.13;101368.81;5041005;28;20041;-77
2023/07/20 07:34:58;;;;;;;91.05;81.25;;;;;;;23.74;54.08;101360.16;5073904;28;20029;-78
2023/07/20 07:37:24;;;;;;;189.88;118.82;;;;;;;24.57;51.91;101372.16;5057579;28;20040;-78
2023/07/20 07:39:50;;;;;;;179.98;115.88;;;;;;;25.30;51.03;101363.72;5057588;28;20071;-78
2023/07/20 07:42:16;;;;;;;179.07;116.15;;;;;;;25.84;47.98;101371.94;5024992;28;20514;-80
2023/07/20 07:44:42;;;;;;;180.38;116.13;;;;;;;26.00;46.73;101355.50;5075087;28;20512;-79
2023/07/20 07:47:08;;;;;;;171.10;113.90;;;;;;;26.12;45.99;101363.56;5060052;28;20431;-78
2023/07/20 07:49:33;;;;;;;177.00;116.72;;;;;;;25.38;45.03;101346.72;5074347;28;20027;-77
2023/07/20 07:52:02;;;;;;;191.02;121.35;;;;;;;24.26;46.24;101350.78;5041208;28;20356;-77
2023/07/20 07:54:28;;;;;;;192.13;120.93;;;;;;;23.57;48.76;101359.28;5056763;28;20036;-77
2023/07/20 07:56:54;;;;;;;197.27;122.57;;;;;;;21.92;53.78;101352.25;5039094;28;20063;-77
2023/07/20 07:59:26;;;;;;;196.45;122.30;;;;;;;21.17;55.44;101357.38;5055933;28;20119;-77
2023/07/20 08:01:52;;;;;;;188.95;119.75;;;;;;;20.59;58.51;101354.13;5024188;28;20083;-76
2023/07/20 08:04:17;;;;;;;193.60;120.43;;;;;;;20.27;60.44;101360.75;5056904;28;20032;-77
2023/07/20 08:06:44;;;;;;;188.43;119.32;;;;;;;19.78;62.61;101349.66;5056240;28;20024;-76
2023/07/20 08:09:10;;;;;;;195.63;120.47;;;;;;;19.42;62.94;101356.56;5056404;28;20127;-78
2023/07/20 08:11:35;;;;;;;198.52;121.53;;;;;;;18.81;64.56;101338.88;5037113;28;20186;-76
2023/07/20 08:14:01;;;;;;;195.23;120.60;;;;;;;18.43;68.13;101355.94;5036919;28;20548;-76
2023/07/20 08:16:28;;;;;;;104.70;87.82;;;;;;;18.28;69.89;101354.53;5020131;28;20033;-77
2023/07/20 08:18:54;;;;;;;100.53;85.25;;;;;;;18.35;70.91;101361.63;5053470;28;20037;-76
2023/07/20 08:21:23;;;;;;;109.45;87.88;;;;;;;18.38;68.07;101358.47;5054474;28;20183;-77
2023/07/20 08:23:49;;;;;;;209.73;125.80;;;;;;;18.49;68.43;101365.16;5046524;28;20486;-77
2023/07/20 08:26:15;;;;;;;211.07;125.30;;;;;;;18.51;67.68;101364.94;5028818;28;20037;-77
2023/07/20 08:28:43;;;;;;;116.53;91.20;;;;;;;18.39;67.96;101367.47;5052643;28;20033;-77
2023/07/20 08:31:09;;;;;;;197.20;120.70;;;;;;;18.07;67.81;101336.53;5048243;28;20039;-78
2023/07/20 08:33:35;;;;;;;115.60;90.78;;;;;;;18.22;68.80;101362.47;5045368;28;20541;-82
2023/07/20 08:36:01;;;;;;;217.13;126.75;;;;;;;18.41;67.98;101349.88;5050572;28;20028;-81
2023/07/20 08:38:27;;;;;;;222.05;130.25;;;;;;;18.86;68.01;101358.13;5021318;28;20126;-82
2023/07/20 08:40:56;;;;;;;223.77;131.02;;;;;;;19.23;65.83;101349.38;5073040;28;20455;-82
2023/07/20 08:43:24;;;;;;;223.43;129.65;;;;;;;19.91;63.87;101360.44;5072960;28;20517;-82
2023/07/20 08:45:51;;;;;;;217.15;127.18;;;;;;;20.09;61.35;101337.00;5066076;28;20024;-81
2023/07/20 08:48:18;;;;;;;214.10;127.55;;;;;;;21.04;57.36;101358.44;5053341;28;20032;-82
2023/07/20 08:51:21;;;;;;;209.57;124.85;;;;;;;21.14;55.77;101317.66;5036392;28;20025;-81
2023/07/20 08:53:47;;;;;;;209.27;125.88;;;;;;;21.78;55.34;101355.44;5062413;28;20028;-82
2023/07/20 08:56:14;;;;;;;214.73;126.18;;;;;;;21.86;54.14;101361.41;5046928;28;20037;-81
2023/07/20 08:58:42;;;;;;;213.85;127.20;;;;;;;21.67;54.08;101368.91;5055804;28;20032;-81
2023/07/20 09:01:08;;;;;;;211.70;125.60;;;;;;;21.28;53.68;101343.78;5055537;28;20054;-81
2023/07/20 09:03:34;;;;;;;212.23;125.88;;;;;;;20.76;54.61;101345.31;5070971;28;20032;-79
2023/07/20 09:06:00;;;;;;;206.02;125.20;;;;;;;20.18;57.70;101338.34;5071623;28;20111;-80
2023/07/20 09:08:25;;;;;;;204.45;123.97;;;;;;;20.12;59.08;101356.47;5064539;28;20471;-78
2023/07/20 09:10:51;;;;;;;205.18;122.88;;;;;;;20.08;60.62;101357.16;5048287;28;20024;-79
2023/07/20 09:13:17;;;;;;;204.30;123.43;;;;;;;20.02;59.86;101350.69;5050153;28;20051;-81
2023/07/20 09:15:53;;;;;;;208.20;125.13;;;;;;;20.02;58.94;101360.78;5050393;28;20482;-78
2023/07/20 09:18:29;;;;;;;208.20;125.28;;;;;;;19.94;59.36;101353.72;5063495;28;20036;-79
2023/07/20 09:21:00;;;;;;;213.07;126.53;;;;;;;19.73;59.90;101333.09;5027064;28;20062;-79
2023/07/20 09:23:33;;;;;;;213.65;126.40;;;;;;;19.63;59.69;101335.47;5036207;28;20407;-81
2023/07/20 09:25:59;;;;;;;208.88;124.95;;;;;;;19.75;59.39;101350.91;5054533;28;20039;-81
2023/07/20 09:28:25;;;;;;;206.38;124.72;;;;;;;19.87;60.06;101334.69;5029867;28;20020;-82
2023/07/20 09:30:51;;;;;;;208.38;124.80;;;;;;;19.96;59.20;101330.59;5059865;28;20040;-79
2023/07/20 09:33:26;;;;;;;195.80;120.38;;;;;;;20.37;58.89;101337.31;5056844;28;20041;-79
2023/07/20 09:35:51;;;;;;;195.25;120.93;;;;;;;20.55;56.27;101349.34;5051880;28;20309;-78
2023/07/20 09:38:17;;;;;;;207.20;123.85;;;;;;;20.32;57.05;101331.72;5019672;28;20044;-77
2023/07/20 09:40:43;;;;;;;197.32;121.75;;;;;;;20.35;59.52;101353.09;5035695;28;20029;-78
2023/07/20 09:43:09;;;;;;;206.73;125.00;;;;;;;20.47;59.17;101353.19;5052099;28;20098;-77
2023/07/20 09:45:41;;;;;;;202.10;123.35;;;;;;;20.41;58.64;101333.06;5035206;28;20072;-78
2023/07/20 09:48:10;;;;;;;226.10;131.37;;;;;;;20.59;57.82;101354.13;5037825;28;20029;-79
2023/07/20 09:50:44;;;;;;;220.00;130.23;;;;;;;20.83;56.15;101346.06;5054736;28;20399;-78
2023/07/20 09:53:17;;;;;;;216.43;128.18;;;;;;;20.97;56.04;101342.09;5037186;28;20135;-78
2023/07/20 09:55:53;;;;;;;219.35;128.68;;;;;;;20.99;54.37;101350.91;5070016;28;20029;-78
2023/07/20 09:58:26;;;;;;;211.07;126.40;;;;;;;20.84;54.91;101348.56;5040633;28;20033;-78
2023/07/20 10:00:52;;;;;;;217.68;128.60;;;;;;;20.63;54.90;101351.78;5039202;28;20505;-79
2023/07/20 10:03:23;;;;;;;215.63;126.97;;;;;;;20.32;56.41;101359.03;5038254;28;20028;-78
2023/07/20 10:05:55;;;;;;;213.50;127.28;;;;;;;19.97;56.54;101337.72;5055513;28;20032;-79
2023/07/20 10:08:25;;;;;;;218.70;129.02;;;;;;;19.60;57.87;101346.81;5071971;28;20033;-80
2023/07/20 10:10:52;;;;;;;212.90;127.15;;;;;;;19.45;58.21;101350.72;5075215;28;20103;-78
2023/07/20 10:13:21;;;;;;;208.70;125.30;;;;;;;19.74;57.29;101334.75;5042725;28;20063;-78
2023/07/20 10:15:50;;;;;;;215.15;127.88;;;;;;;20.53;56.89;101351.44;5057355;28;20032;-81
2023/07/20 10:18:30;;;;;;;211.55;125.78;;;;;;;22.10;54.35;101351.31;5039501;28;20028;-77
2023/07/20 10:20:56;;;;;;;218.85;129.15;;;;;;;23.72;49.55;101351.34;5043170;28;20037;-78
2023/07/20 10:23:23;;;;;;;213.25;127.50;;;;;;;25.57;44.18;101338.91;5042626;28;20040;-78
2023/07/20 10:25:50;;;;;;;209.80;126.75;;;;;;;26.12;41.00;101345.13;5051247;28;20093;-80
2023/07/20 10:28:16;;;;;;;199.82;123.55;;;;;;;25.14;40.53;101343.41;5055787;28;20054;-80
2023/07/20 10:30:42;;;;;;;199.05;122.68;;;;;;;24.33;43.03;101345.94;5038801;28;20037;-78
2023/07/20 10:33:08;;;;;;;203.50;125.78;;;;;;;26.30;42.25;101346.59;5039373;28;20457;-78
2023/07/20 10:35:55;;;;;;;206.52;126.50;;;;;;;28.76;36.78;101344.94;5055956;28;20470;-78
2023/07/20 10:38:39;;;;;;;203.52;126.60;;;;;;;30.94;33.34;101339.72;5069921;28;20033;-78
2023/07/20 10:41:37;;;;;;;186.88;121.50;;;;;;;31.50;29.31;101329.72;5059225;28;20047;-78
2023/07/20 10:44:13;;;;;;;203.85;128.30;;;;;;;32.02;28.99;101340.81;5075911;28;20477;-78
2023/07/20 10:46:39;;;;;;;207.88;129.85;;;;;;;30.97;29.26;101341.06;5060363;28;20140;-79
2023/07/20 10:49:09;;;;;;;213.75;131.07;;;;;;;30.39;30.14;101336.50;5074604;28;20471;-81
2023/07/20 10:51:47;;;;;;;225.00;135.20;;;;;;;29.56;31.49;101328.13;5035770;28;20029;-77
2023/07/20 10:54:16;;;;;;;234.90;137.88;;;;;;;28.84;30.93;101333.25;5039065;28;20083;-77
2023/07/20 10:56:43;;;;;;;259.63;146.18;;;;;;;29.42;32.39;101316.03;5068656;28;20032;-81